createdAt,value
2018-05-14T00:01:58.784Z,73.20
2018-05-14T00:04:26.304Z,73.40
2018-05-14T00:06:53.830Z,72.90
2018-05-14T00:09:21.341Z,75.00
2018-05-14T00:11:48.980Z,74.00
2018-05-14T00:14:16.486Z,74.90
2018-05-14T00:16:44.121Z,74.40
2018-05-14T00:19:12.424Z,74.90
2018-05-14T00:21:39.968Z,74.90
2018-05-14T00:24:07.501Z,74.40
2018-05-14T00:26:35.046Z,74.50
2018-05-14T00:29:02.565Z,75.20
2018-05-14T00:31:30.103Z,74.80
2018-05-14T00:33:57.624Z,74.80
2018-05-14T00:36:25.148Z,74.30
2018-05-14T00:38:52.681Z,74.80
2018-05-14T00:41:20.201Z,75.40
2018-05-14T00:43:47.740Z,75.70
2018-05-14T00:46:15.257Z,76.80
2018-05-14T00:48:42.796Z,76.60
2018-05-14T00:51:10.312Z,76.60
2018-05-14T00:53:37.848Z,76.90
2018-05-14T00:56:05.384Z,77.50
2018-05-14T00:58:32.926Z,75.20
2018-05-14T01:01:00.441Z,75.60
2018-05-14T01:03:27.989Z,75.30
2018-05-14T01:05:55.499Z,75.80
2018-05-14T01:08:23.813Z,77.00
2018-05-14T01:10:51.335Z,76.80
2018-05-14T01:13:18.980Z,76.40
2018-05-14T01:15:46.506Z,76.30
2018-05-14T01:18:14.048Z,77.00
2018-05-14T01:20:41.577Z,77.20
2018-05-14T01:23:09.132Z,78.30
2018-05-14T01:25:36.672Z,79.20
2018-05-14T01:28:05.072Z,78.10
2018-05-14T01:30:32.562Z,78.00
2018-05-14T01:33:00.116Z,79.80
2018-05-14T01:35:27.642Z,79.00
2018-05-14T01:37:55.202Z,80.10
2018-05-14T01:40:22.729Z,79.70
2018-05-14T01:42:50.280Z,79.60
2018-05-14T01:45:17.821Z,78.40
2018-05-14T01:47:45.346Z,78.60
2018-05-14T01:50:12.888Z,79.00
2018-05-14T01:52:40.407Z,79.10
2018-05-14T01:55:07.964Z,79.00
2018-05-14T01:57:35.493Z,78.80
2018-05-14T02:00:03.057Z,79.20
2018-05-14T02:02:30.603Z,79.50
2018-05-14T02:04:58.149Z,79.10
2018-05-14T02:07:25.677Z,79.60
2018-05-14T02:09:53.972Z,79.40
2018-05-14T02:12:21.504Z,79.40
2018-05-14T02:14:49.054Z,79.80
2018-05-14T02:17:16.584Z,79.50
2018-05-14T02:19:44.129Z,79.50
2018-05-14T02:22:11.654Z,80.50
2018-05-14T02:24:39.192Z,81.00
2018-05-14T02:27:06.717Z,81.70
2018-05-14T02:29:35.069Z,81.30
2018-05-14T02:32:03.378Z,81.80
2018-05-14T02:34:30.914Z,81.80
2018-05-14T02:36:58.506Z,81.60
2018-05-14T02:39:26.043Z,81.40
2018-05-14T02:41:53.547Z,81.10
2018-05-14T02:44:21.101Z,81.30
2018-05-14T02:46:49.387Z,81.80
2018-05-14T02:49:16.951Z,81.80
2018-05-14T02:51:44.497Z,81.90
2018-05-14T02:54:12.064Z,81.90
2018-05-14T02:56:39.615Z,81.90
2018-05-14T02:59:07.152Z,81.80
2018-05-14T03:01:36.933Z,81.80
2018-05-14T03:04:04.473Z,81.60
2018-05-14T03:06:32.032Z,82.00
2018-05-14T03:08:59.580Z,83.20
2018-05-14T03:11:27.111Z,83.60
2018-05-14T03:13:55.450Z,84.10
2018-05-14T03:16:23.009Z,84.70
2018-05-14T03:18:50.544Z,84.80
2018-05-14T03:21:18.084Z,84.90
2018-05-14T03:23:45.614Z,84.40
2018-05-14T03:26:13.936Z,84.70
2018-05-14T03:28:41.643Z,84.60
2018-05-14T03:31:09.207Z,84.10
2018-05-14T03:33:36.773Z,84.30
2018-05-14T03:36:04.325Z,84.80
2018-05-14T03:38:32.617Z,84.60
2018-05-14T03:41:00.189Z,84.50
2018-05-14T03:43:27.725Z,84.70
2018-05-14T03:45:55.277Z,85.30
2018-05-14T03:48:22.793Z,85.70
2018-05-14T03:50:50.333Z,85.80
2018-05-14T03:53:17.852Z,86.30
2018-05-14T03:55:46.171Z,86.60
2018-05-14T03:58:25.414Z,86.60
2018-05-14T04:01:04.744Z,87.20
2018-05-14T04:03:44.130Z,86.90
2018-05-14T04:06:24.256Z,86.80
2018-05-14T04:08:52.612Z,86.80
2018-05-14T04:11:20.327Z,86.60
2018-05-14T04:13:47.860Z,86.60
2018-05-14T04:16:15.376Z,86.70
2018-05-14T04:18:42.916Z,86.70
2018-05-14T04:21:10.427Z,87.00
2018-05-14T04:23:37.961Z,86.20
2018-05-14T04:26:05.485Z,86.60
2018-05-14T04:28:33.035Z,86.40
2018-05-14T04:31:00.580Z,86.20
2018-05-14T04:33:28.126Z,85.70
2018-05-14T04:35:56.428Z,85.40
2018-05-14T04:38:24.028Z,85.10
2018-05-14T04:40:51.546Z,84.60
2018-05-14T04:43:19.110Z,84.30
2018-05-14T04:45:46.640Z,82.90
2018-05-14T04:48:14.953Z,81.00
2018-05-14T04:50:42.482Z,80.90
2018-05-14T04:53:10.795Z,79.10
2018-05-14T04:55:38.346Z,79.00
2018-05-14T04:58:06.106Z,79.40
2018-05-14T05:00:33.634Z,79.90
2018-05-14T05:03:01.195Z,78.60
2018-05-14T05:05:28.714Z,78.70
2018-05-14T05:07:56.259Z,78.20
2018-05-14T05:10:23.785Z,78.40
2018-05-14T05:12:51.331Z,77.70
2018-05-14T05:15:19.986Z,78.40
2018-05-14T05:17:47.540Z,76.80
2018-05-14T05:20:15.088Z,77.20
2018-05-14T05:22:42.660Z,77.30
2018-05-14T05:25:10.195Z,77.30
2018-05-14T05:27:37.705Z,76.80
2018-05-14T05:30:05.268Z,72.90
2018-05-14T05:32:32.783Z,75.10
2018-05-14T05:35:00.337Z,73.70
2018-05-14T05:37:27.915Z,71.40
2018-05-14T05:39:55.482Z,72.40
2018-05-14T05:42:22.998Z,72.00
2018-05-14T05:44:50.549Z,73.20
2018-05-14T05:47:18.122Z,71.90
2018-05-14T05:49:45.663Z,71.10
2018-05-14T05:52:13.205Z,70.80
2018-05-14T05:54:40.758Z,70.50
2018-05-14T05:57:08.283Z,68.30
2018-05-14T05:59:36.588Z,68.40
2018-05-14T06:02:04.109Z,68.40
2018-05-14T06:04:31.653Z,70.70
2018-05-14T06:06:59.192Z,66.70
2018-05-14T06:09:26.750Z,65.10
2018-05-14T06:11:54.284Z,64.80
2018-05-14T06:14:21.828Z,64.20
2018-05-14T06:16:49.360Z,64.80
2018-05-14T06:19:16.896Z,64.00
2018-05-14T06:21:44.415Z,64.60
2018-05-14T06:24:11.936Z,65.50
2018-05-14T06:26:40.248Z,65.10
2018-05-14T06:29:07.768Z,65.10
2018-05-14T06:31:36.069Z,64.40
2018-05-14T06:34:03.584Z,64.30
2018-05-14T06:36:31.128Z,62.60
2018-05-14T06:38:58.661Z,62.90
2018-05-14T06:41:26.203Z,60.10
2018-05-14T06:43:53.728Z,59.50
2018-05-14T06:46:22.188Z,58.70
2018-05-14T06:48:49.609Z,58.70
2018-05-14T06:51:17.156Z,59.20
2018-05-14T06:53:44.689Z,57.50
2018-05-14T06:56:12.243Z,56.30
2018-05-14T06:58:40.583Z,56.70
2018-05-14T07:01:08.129Z,56.50
2018-05-14T07:03:35.670Z,54.60
2018-05-14T07:06:03.219Z,54.90
2018-05-14T07:08:30.735Z,54.70
2018-05-14T07:10:58.262Z,56.90
2018-05-14T07:13:25.794Z,53.20
2018-05-14T07:15:53.337Z,51.80
2018-05-14T07:18:20.860Z,48.20
2018-05-14T07:20:48.392Z,40.40
2018-05-14T07:23:15.899Z,33.70
2018-05-14T07:25:43.431Z,29.10
2018-05-14T07:28:10.944Z,26.40
2018-05-14T07:30:38.663Z,23.50
2018-05-14T07:33:06.188Z,23.80
2018-05-14T07:35:33.762Z,22.10
2018-05-14T07:38:01.292Z,21.70
2018-05-14T07:40:28.880Z,21.40
2018-05-14T07:42:57.144Z,21.10
2018-05-14T07:45:24.670Z,21.10
2018-05-14T07:47:52.231Z,21.50
2018-05-14T07:50:19.765Z,21.50
2018-05-14T07:52:47.312Z,21.10
2018-05-14T07:55:14.823Z,20.90
2018-05-14T07:57:42.361Z,21.20
2018-05-14T08:00:09.890Z,21.20
2018-05-14T08:02:37.428Z,22.40
2018-05-14T08:05:04.948Z,21.90
2018-05-14T08:07:32.480Z,21.00
2018-05-14T08:10:00.006Z,21.30
2018-05-14T08:12:27.563Z,21.10
2018-05-14T08:14:55.089Z,21.80
2018-05-14T08:17:22.783Z,21.00
2018-05-14T08:19:51.071Z,20.20
2018-05-14T08:22:18.621Z,20.10
2018-05-14T08:24:46.152Z,21.50
2018-05-14T08:27:13.700Z,20.90
2018-05-14T08:29:41.237Z,21.10
2018-05-14T08:32:08.790Z,22.00
2018-05-14T08:34:37.084Z,22.50
2018-05-14T08:37:04.652Z,22.50
2018-05-14T08:39:32.171Z,22.80
2018-05-14T08:41:59.787Z,22.00
2018-05-14T08:44:27.312Z,20.40
2018-05-14T08:46:54.875Z,20.80
2018-05-14T08:49:22.383Z,19.30
2018-05-14T08:51:49.900Z,19.90
2018-05-14T08:54:17.514Z,21.10
2018-05-14T08:56:44.987Z,19.90
2018-05-14T08:59:12.521Z,19.50
2018-05-14T09:01:40.048Z,17.90
2018-05-14T09:04:07.575Z,17.90
2018-05-14T09:06:35.272Z,16.70
2018-05-14T09:09:02.827Z,18.30
2018-05-14T09:11:30.361Z,20.00
2018-05-14T09:13:57.908Z,19.30
2018-05-14T09:16:25.443Z,18.70
2018-05-14T09:18:52.997Z,19.10
2018-05-14T09:21:20.515Z,19.70
2018-05-14T09:23:48.057Z,20.50
2018-05-14T09:26:15.578Z,20.30
2018-05-14T09:28:43.138Z,19.60
2018-05-14T09:31:10.656Z,18.50
2018-05-14T09:33:38.967Z,18.10
2018-05-14T09:36:06.497Z,18.20
2018-05-14T09:38:34.048Z,18.90
2018-05-14T09:41:01.618Z,18.90
2018-05-14T09:43:29.932Z,20.00
2018-05-14T09:45:57.453Z,19.90
2018-05-14T09:48:25.765Z,18.50
2018-05-14T09:50:53.290Z,18.50
2018-05-14T09:53:20.848Z,19.70
2018-05-14T09:55:48.394Z,18.40
2018-05-14T09:58:16.010Z,18.00
2018-05-14T10:00:43.543Z,19.00
2018-05-14T10:03:11.092Z,18.90
2018-05-14T10:05:38.607Z,19.40
2018-05-14T10:08:06.168Z,19.00
2018-05-14T10:10:33.736Z,19.30
2018-05-14T10:13:01.343Z,20.40
2018-05-14T10:15:28.837Z,23.10
2018-05-14T10:17:56.357Z,24.50
2018-05-14T10:20:23.899Z,26.60
2018-05-14T10:22:51.423Z,27.60
2018-05-14T10:25:18.971Z,29.10
2018-05-14T10:27:46.501Z,27.50
2018-05-14T10:30:14.048Z,26.30
2018-05-14T10:32:41.581Z,26.00
2018-05-14T10:35:09.120Z,28.00
2018-05-14T10:37:36.656Z,27.30
2018-05-14T10:40:04.220Z,27.30
2018-05-14T10:42:31.889Z,26.30
2018-05-14T10:44:59.423Z,26.90
2018-05-14T10:47:26.949Z,25.80
2018-05-14T10:49:54.479Z,23.80
2018-05-14T10:52:22.001Z,27.90
2018-05-14T10:54:49.557Z,24.10
2018-05-14T10:57:17.086Z,26.60
2018-05-14T10:59:44.629Z,26.40
2018-05-14T11:02:12.153Z,25.40
2018-05-14T11:04:39.692Z,26.70
2018-05-14T11:07:07.206Z,26.10
2018-05-14T11:09:34.736Z,28.10
2018-05-14T11:12:03.204Z,26.10
2018-05-14T11:14:30.755Z,25.90
2018-05-14T11:16:58.428Z,24.70
2018-05-14T11:19:25.981Z,25.90
2018-05-14T11:21:53.511Z,25.40
2018-05-14T11:24:21.029Z,25.40
2018-05-14T11:26:48.584Z,24.50
2018-05-14T11:29:16.110Z,24.00
2018-05-14T11:31:43.653Z,25.10
2018-05-14T11:34:11.167Z,24.40
2018-05-14T11:36:38.706Z,23.40
2018-05-14T11:39:06.245Z,23.50
2018-05-14T11:41:34.568Z,24.90
2018-05-14T11:44:03.189Z,24.80
2018-05-14T11:46:30.725Z,24.70
2018-05-14T11:48:58.257Z,26.00
2018-05-14T11:51:25.843Z,25.40
2018-05-14T11:53:53.359Z,25.70
2018-05-14T11:56:20.884Z,23.00
2018-05-14T11:58:48.408Z,23.10
2018-05-14T12:43:42.621Z,24.40
2018-05-14T12:46:10.165Z,25.50
2018-05-14T12:48:38.456Z,26.40
2018-05-14T12:51:06.042Z,26.40
2018-05-14T12:53:33.575Z,27.10
2018-05-14T12:56:01.105Z,25.90
2018-05-14T12:58:28.672Z,27.80
2018-05-14T13:00:56.216Z,25.70
2018-05-14T13:03:23.748Z,25.60
2018-05-14T13:05:51.308Z,25.80
2018-05-14T13:08:18.869Z,24.80
2018-05-14T13:10:46.401Z,27.10
2018-05-14T13:13:14.076Z,28.20
2018-05-14T13:15:41.520Z,28.30
2018-05-14T13:18:09.058Z,26.20
2018-05-14T13:20:36.584Z,26.80
2018-05-14T13:23:04.146Z,25.10
2018-05-14T13:25:31.668Z,26.40
2018-05-14T13:27:59.220Z,26.90
2018-05-14T13:30:26.805Z,26.30
2018-05-14T13:32:54.332Z,27.40
2018-05-14T13:35:22.623Z,27.30
2018-05-14T13:37:50.960Z,26.40
2018-05-14T13:40:18.486Z,26.40
2018-05-14T13:42:46.040Z,25.80
2018-05-14T13:45:14.345Z,27.90
2018-05-14T13:47:41.884Z,27.90
2018-05-14T13:50:10.222Z,26.80
2018-05-14T13:52:37.773Z,26.70
2018-05-14T13:55:05.287Z,26.40
2018-05-14T13:57:32.838Z,26.00
2018-05-14T14:00:01.128Z,26.00
2018-05-14T14:02:28.691Z,26.00
2018-05-14T14:04:56.286Z,26.90
2018-05-14T14:07:24.523Z,25.30
2018-05-14T14:09:52.056Z,25.30
2018-05-14T14:12:20.337Z,26.90
2018-05-14T14:14:47.907Z,26.80
2018-05-14T14:17:16.185Z,25.90
2018-05-14T14:19:43.737Z,25.90
2018-05-14T14:22:11.265Z,27.00
2018-05-14T14:24:38.804Z,26.50
2018-05-14T14:27:06.334Z,27.30
2018-05-14T14:29:33.872Z,26.70
2018-05-14T14:32:01.395Z,26.40
2018-05-14T14:34:28.925Z,27.50
2018-05-14T14:36:56.448Z,26.30
2018-05-14T14:39:24.015Z,27.10
2018-05-14T14:41:51.603Z,27.00
2018-05-14T14:44:19.107Z,27.10
2018-05-14T14:46:47.407Z,27.50
2018-05-14T14:49:15.060Z,27.50
2018-05-14T14:51:42.500Z,27.30
2018-05-14T14:54:10.815Z,27.50
2018-05-14T14:56:38.353Z,27.50
2018-05-14T14:59:06.659Z,26.60
2018-05-14T15:01:34.184Z,26.50
2018-05-14T15:04:01.728Z,26.50
2018-05-14T15:06:29.248Z,26.80
2018-05-14T15:08:56.922Z,27.10
2018-05-14T15:11:24.446Z,27.60
2018-05-14T15:13:51.994Z,26.50
2018-05-14T15:16:19.540Z,26.70
2018-05-14T15:18:47.091Z,28.20
2018-05-14T15:21:14.640Z,27.70
2018-05-14T15:23:42.164Z,26.90
2018-05-14T15:26:09.744Z,27.20
2018-05-14T15:28:37.272Z,27.30
2018-05-14T15:31:04.820Z,28.10
2018-05-14T15:33:32.349Z,29.30
2018-05-14T15:35:59.885Z,27.90
2018-05-14T15:38:28.181Z,27.80
2018-05-14T15:40:55.716Z,27.80
2018-05-14T15:43:24.008Z,28.60
2018-05-14T15:45:51.543Z,28.60
2018-05-14T15:48:19.118Z,28.40
2018-05-14T15:50:46.708Z,28.30
2018-05-14T15:53:14.259Z,28.70
2018-05-14T15:55:41.846Z,28.10
2018-05-14T15:58:09.551Z,29.30
2018-05-14T16:00:37.088Z,29.10
2018-05-14T16:03:04.779Z,29.40
2018-05-14T16:05:32.317Z,28.90
2018-05-14T16:08:00.634Z,28.70
2018-05-14T16:10:28.184Z,28.60
2018-05-14T16:12:56.473Z,29.10
2018-05-14T16:15:24.788Z,29.70
2018-05-14T16:17:52.317Z,29.70
2018-05-14T16:20:19.870Z,30.40
2018-05-14T16:22:47.383Z,28.60
2018-05-14T16:25:14.996Z,28.60
2018-05-14T16:27:42.535Z,28.70
2018-05-14T16:30:10.069Z,28.80
2018-05-14T16:32:37.611Z,29.10
2018-05-14T16:35:05.157Z,30.00
2018-05-14T16:37:32.697Z,29.30
2018-05-14T16:40:00.219Z,29.80
2018-05-14T16:42:27.755Z,29.40
2018-05-14T16:44:55.263Z,29.90
2018-05-14T16:47:22.819Z,29.30
2018-05-14T16:49:50.412Z,29.90
2018-05-14T16:52:17.953Z,30.60
2018-05-14T16:54:45.485Z,30.00
2018-05-14T16:57:13.020Z,30.70
2018-05-14T16:59:40.565Z,31.20
2018-05-14T17:02:09.003Z,31.20
2018-05-14T17:04:36.561Z,31.10
2018-05-14T17:07:04.096Z,30.80
2018-05-14T17:09:31.641Z,30.40
2018-05-14T17:11:59.956Z,32.00
2018-05-14T17:14:27.491Z,31.90
2018-05-14T17:16:55.038Z,30.40
2018-05-14T17:19:22.580Z,31.40
2018-05-14T17:21:50.117Z,31.80
2018-05-14T17:24:17.641Z,30.90
2018-05-14T17:26:45.337Z,31.80
2018-05-14T17:29:12.855Z,31.70
2018-05-14T17:31:40.426Z,31.70
2018-05-14T17:34:07.968Z,32.30
2018-05-14T17:36:35.532Z,31.70
2018-05-14T17:39:03.065Z,31.60
2018-05-14T17:41:30.592Z,32.50
2018-05-14T17:43:58.925Z,32.90
2018-05-14T17:46:26.448Z,32.90
2018-05-14T17:48:54.012Z,33.10
2018-05-14T17:51:21.547Z,33.90
2018-05-14T17:53:49.857Z,33.40
2018-05-14T17:56:17.561Z,33.40
2018-05-14T17:58:45.116Z,33.70
2018-05-14T18:01:12.650Z,34.00
2018-05-14T18:03:40.200Z,34.50
2018-05-14T18:06:07.733Z,34.90
2018-05-14T18:08:35.284Z,37.50
2018-05-14T18:11:02.890Z,35.50
2018-05-14T18:13:31.140Z,37.90
2018-05-14T18:15:59.260Z,37.90
2018-05-14T18:18:26.799Z,38.70
2018-05-14T18:21:00.255Z,39.00
2018-05-14T18:23:27.809Z,40.00
2018-05-14T18:26:11.013Z,40.70
2018-05-14T18:28:40.256Z,41.50
2018-05-14T18:31:13.559Z,41.50
2018-05-14T18:33:41.072Z,41.90
2018-05-14T18:36:09.400Z,42.70
2018-05-14T18:38:36.944Z,42.70
2018-05-14T18:41:04.473Z,41.70
2018-05-14T18:43:32.028Z,42.50
2018-05-14T18:45:59.586Z,43.60
2018-05-14T18:48:27.134Z,42.20
2018-05-14T18:50:55.422Z,42.10
2018-05-14T18:53:22.960Z,42.10
2018-05-14T18:55:51.278Z,45.70
2018-05-14T18:58:18.803Z,45.60
2018-05-14T19:00:47.113Z,45.80
2018-05-14T19:03:15.411Z,44.10
2018-05-14T19:05:42.951Z,44.10
2018-05-14T19:08:10.463Z,44.10
2018-05-14T19:10:44.439Z,44.40
2018-05-14T19:13:11.969Z,44.40
2018-05-14T19:15:45.072Z,46.00
2018-05-14T19:18:12.756Z,45.90
2018-05-14T19:20:40.302Z,45.10
2018-05-14T19:23:13.537Z,45.60
2018-05-14T19:25:41.074Z,47.30
2018-05-14T19:28:14.328Z,47.20
2018-05-14T19:30:41.839Z,49.30
2018-05-14T19:33:10.127Z,50.40
2018-05-14T19:35:43.346Z,50.30
2018-05-14T19:38:10.816Z,50.60
2018-05-14T19:40:44.073Z,51.00
2018-05-14T19:43:11.591Z,52.20
2018-05-14T19:45:39.140Z,52.30
2018-05-14T19:48:06.665Z,52.70
2018-05-14T19:50:34.206Z,53.00
2018-05-14T19:53:01.736Z,53.00
2018-05-14T19:55:29.284Z,51.30
2018-05-14T19:57:56.831Z,53.80
2018-05-14T20:00:24.371Z,53.10
2018-05-14T20:02:51.909Z,51.90
2018-05-14T20:05:19.453Z,52.50
2018-05-14T20:07:46.984Z,54.90
2018-05-14T20:10:15.281Z,56.20
2018-05-14T20:12:42.841Z,56.10
2018-05-14T20:15:10.383Z,55.80
2018-05-14T20:17:38.681Z,57.90
2018-05-14T20:20:06.267Z,57.90
2018-05-14T20:22:33.801Z,58.80
2018-05-14T20:25:01.360Z,58.80
2018-05-14T20:27:28.911Z,58.00
2018-05-14T20:29:56.632Z,56.90
2018-05-14T20:32:24.183Z,57.30
2018-05-14T20:34:51.713Z,58.50
2018-05-14T20:37:19.357Z,60.40
2018-05-14T20:39:46.974Z,60.30
2018-05-14T20:42:15.283Z,62.50
2018-05-14T20:44:42.808Z,62.50
2018-05-14T20:47:10.382Z,63.00
2018-05-14T20:49:38.678Z,65.40
2018-05-14T20:52:06.235Z,65.30
2018-05-14T20:54:33.767Z,65.70
2018-05-14T20:57:02.073Z,65.90
2018-05-14T20:59:30.369Z,65.20
2018-05-14T21:01:57.901Z,65.20
2018-05-14T21:04:25.630Z,66.10
2018-05-14T21:06:53.163Z,65.60
2018-05-14T21:09:20.690Z,65.50
2018-05-14T21:11:48.217Z,61.70
2018-05-14T21:14:15.766Z,60.80
2018-05-14T21:16:43.298Z,64.70
2018-05-14T21:19:10.835Z,65.60
2018-05-14T21:21:38.411Z,65.50
2018-05-14T21:24:05.963Z,68.00
2018-05-14T21:26:33.478Z,69.20
2018-05-14T21:29:01.016Z,68.30
2018-05-14T21:31:29.471Z,68.70
2018-05-14T21:33:57.022Z,68.60
2018-05-14T21:36:24.542Z,63.50
2018-05-14T21:38:52.085Z,62.10
2018-05-14T21:41:19.615Z,61.60
2018-05-14T21:43:47.167Z,61.80
2018-05-14T21:46:14.694Z,62.50
2018-05-14T21:48:42.235Z,61.90
2018-05-14T21:51:09.774Z,61.40
2018-05-14T21:53:38.085Z,63.90
2018-05-14T21:56:05.612Z,63.80
2018-05-14T21:58:33.360Z,64.40
2018-05-14T22:01:01.654Z,67.90
2018-05-14T22:03:29.208Z,67.90
2018-05-14T22:05:58.631Z,68.60
2018-05-14T22:08:26.184Z,67.60
2018-05-14T22:10:53.717Z,70.80
2018-05-14T22:13:21.274Z,71.70
2018-05-14T22:15:48.810Z,71.80
2018-05-14T22:18:16.357Z,72.10
2018-05-14T22:20:43.887Z,73.30
2018-05-14T22:23:11.451Z,73.60
2018-05-14T22:25:38.982Z,74.40
2018-05-14T22:28:06.501Z,75.10
2018-05-14T22:30:34.045Z,74.60
2018-05-14T22:33:01.572Z,75.40
2018-05-14T22:35:30.172Z,74.80
2018-05-14T22:37:57.739Z,75.20
2018-05-14T22:40:25.280Z,75.50
2018-05-14T22:42:52.804Z,75.80
2018-05-14T22:45:20.335Z,76.20
2018-05-14T22:47:48.624Z,76.90
2018-05-14T22:50:16.159Z,76.80
2018-05-14T22:52:43.687Z,77.60
2018-05-14T22:55:11.225Z,77.00
2018-05-14T22:57:38.769Z,77.70
2018-05-14T23:00:06.331Z,78.30
2018-05-14T23:02:33.865Z,78.80
2018-05-14T23:05:02.179Z,78.30
2018-05-14T23:07:29.712Z,79.00
2018-05-14T23:09:57.250Z,76.60
2018-05-14T23:12:24.793Z,76.60
2018-05-14T23:14:52.324Z,77.00
2018-05-14T23:17:19.860Z,78.10
2018-05-14T23:19:47.426Z,78.10
2018-05-14T23:22:16.419Z,78.50
2018-05-14T23:24:43.967Z,78.50
2018-05-14T23:27:11.493Z,79.00
2018-05-14T23:29:39.044Z,79.60
2018-05-14T23:32:07.332Z,80.30
2018-05-14T23:34:34.901Z,80.30
2018-05-14T23:37:02.431Z,81.20
2018-05-14T23:39:30.721Z,81.90
2018-05-14T23:41:59.028Z,81.20
2018-05-14T23:44:26.560Z,81.20
2018-05-14T23:46:54.099Z,80.30
2018-05-14T23:49:22.405Z,80.00
2018-05-14T23:51:49.940Z,80.00
2018-05-14T23:54:18.242Z,81.60
2018-05-14T23:56:45.794Z,81.50
2018-05-14T23:59:13.315Z,81.00
